Time;durP1;ratioP1;P1;durP2;ratioP2;P2;SDS_P1;SDS_P2;PMS_P1;PMS_P2;Temp;Humidity;BMP_temperature;BMP_pressure;BME280_temperature;BME280_humidity;BME280_pressure;Samples;Min_cycle;Max_cycle;Signal;HPM_P1;HPM_P2
2021/07/16 00:00:32;;;;;;;29.03;11.20;;;;;;;21.62;73.67;101126.78;5016053;28;20488;-48
2021/07/16 00:02:59;;;;;;;28.83;11.00;;;;;;;21.59;73.84;101130.28;5014982;28;20481;-47
2021/07/16 00:05:27;;;;;;;35.33;11.60;;;;;;;21.68;73.49;101132.03;5015906;28;20464;-48
2021/07/16 00:07:55;;;;;;;26.10;11.37;;;;;;;21.41;73.83;101124.13;5015443;28;20483;-51
2021/07/16 00:10:22;;;;;;;33.53;12.10;;;;;;;21.31;73.89;101130.22;5016163;28;20481;-48
2021/07/16 00:12:51;;;;;;;24.70;10.87;;;;;;;21.45;74.26;101136.38;5014997;28;20477;-46
2021/07/16 00:15:20;;;;;;;24.90;11.00;;;;;;;21.38;74.03;101134.59;5016521;28;20453;-46
2021/07/16 00:17:49;;;;;;;34.53;10.80;;;;;;;21.42;73.66;101141.63;5014890;28;20591;-46
2021/07/16 00:20:17;;;;;;;31.37;10.50;;;;;;;21.52;73.51;101146.88;5016117;28;20523;-47
2021/07/16 00:22:45;;;;;;;19.93;9.87;;;;;;;21.50;73.79;101148.63;5014812;28;20771;-47
2021/07/16 00:25:13;;;;;;;28.00;11.10;;;;;;;21.41;73.42;101139.88;5016116;28;20461;-47
2021/07/16 00:27:41;;;;;;;25.73;11.30;;;;;;;21.38;73.31;101145.09;5014528;28;20480;-49
2021/07/16 00:30:10;;;;;;;30.90;11.70;;;;;;;21.18;73.16;101143.28;5015980;28;20556;-49
2021/07/16 00:32:39;;;;;;;29.17;10.90;;;;;;;21.14;74.04;101146.78;5014714;28;20922;-51
2021/07/16 00:35:07;;;;;;;24.63;9.90;;;;;;;21.11;73.86;101152.00;5012803;28;20454;-49
2021/07/16 00:37:35;;;;;;;31.37;11.33;;;;;;;21.21;73.27;101152.06;5014522;28;20483;-48
2021/07/16 00:40:07;;;;;;;27.20;11.23;;;;;;;21.11;73.61;101154.63;5015739;28;20488;-50
2021/07/16 00:42:34;;;;;;;21.60;10.93;;;;;;;21.10;73.68;101162.47;5011474;28;20488;-50
2021/07/16 00:45:02;;;;;;;26.37;10.83;;;;;;;21.09;74.04;101159.00;5015870;28;20464;-49
2021/07/16 00:47:29;;;;;;;28.47;10.17;;;;;;;20.97;74.00;101158.94;5014346;28;20481;-49
2021/07/16 00:49:58;;;;;;;24.20;9.00;;;;;;;20.91;73.50;101159.78;5015498;28;20480;-49
2021/07/16 00:52:26;;;;;;;24.70;10.27;;;;;;;20.86;74.16;101165.00;5014440;28;20474;-48
2021/07/16 00:54:54;;;;;;;24.53;10.50;;;;;;;20.87;73.91;101169.38;5015613;28;20564;-47
2021/07/16 00:57:21;;;;;;;22.80;9.47;;;;;;;20.99;73.85;101165.06;5014250;28;20796;-47
2021/07/16 00:59:49;;;;;;;29.13;10.63;;;;;;;20.87;73.72;101158.88;5015426;28;20492;-47
2021/07/16 01:02:17;;;;;;;29.67;10.37;;;;;;;20.91;73.16;101155.41;5013702;28;20498;-47
2021/07/16 01:04:45;;;;;;;28.40;10.70;;;;;;;20.77;73.55;101151.81;5015425;28;20475;-48
2021/07/16 01:07:13;;;;;;;25.33;9.43;;;;;;;20.70;73.90;101150.00;5014151;28;20483;-47
2021/07/16 01:09:41;;;;;;;25.90;10.43;;;;;;;20.81;73.64;101155.34;5015605;28;20572;-48
2021/07/16 01:12:10;;;;;;;28.27;10.07;;;;;;;20.60;73.73;101149.97;5014229;28;20476;-47
2021/07/16 01:14:37;;;;;;;28.67;10.47;;;;;;;20.59;74.03;101158.69;5013208;28;20459;-48
2021/07/16 01:17:05;;;;;;;33.97;9.83;;;;;;;20.49;74.12;101159.50;5019959;28;20493;-48
2021/07/16 01:19:41;;;;;;;21.13;10.30;;;;;;;20.60;73.80;101157.81;5021889;28;20471;-49
2021/07/16 01:22:10;;;;;;;31.60;10.83;;;;;;;20.59;73.86;101157.81;5020277;28;20492;-46
2021/07/16 01:24:39;;;;;;;24.33;10.10;;;;;;;20.54;73.74;101159.50;5021941;28;20478;-50
2021/07/16 01:27:06;;;;;;;25.87;9.30;;;;;;;20.44;73.78;101156.84;5020096;28;20484;-47
2021/07/16 01:29:35;;;;;;;25.90;9.97;;;;;;;20.51;73.84;101157.78;5021698;28;20463;-46
2021/07/16 01:32:04;;;;;;;19.63;9.27;;;;;;;20.45;73.87;101155.13;5020223;28;20479;-48
2021/07/16 01:34:31;;;;;;;26.77;10.03;;;;;;;20.50;74.00;101158.63;5021600;28;20466;-49
2021/07/16 01:36:59;;;;;;;27.83;10.40;;;;;;;20.48;73.43;101163.00;5020006;28;20490;-49
2021/07/16 01:39:27;;;;;;;27.93;9.93;;;;;;;20.44;73.72;101161.19;5021811;28;20753;-47
2021/07/16 01:41:56;;;;;;;31.10;10.37;;;;;;;20.27;73.85;101164.59;5014133;28;20484;-46
2021/07/16 01:44:24;;;;;;;29.50;10.07;;;;;;;20.47;73.89;101163.84;5001972;28;20461;-49
2021/07/16 01:46:52;;;;;;;23.53;10.43;;;;;;;20.49;73.65;101168.25;5000653;28;20535;-49
2021/07/16 01:49:20;;;;;;;28.87;10.53;;;;;;;20.48;73.81;101173.47;5002130;28;20496;-46
2021/07/16 01:51:47;;;;;;;30.57;10.30;;;;;;;20.66;73.53;101169.22;5000568;28;20486;-46
2021/07/16 01:54:15;;;;;;;35.80;11.10;;;;;;;20.32;73.51;101176.00;5001789;28;20772;-47
2021/07/16 01:56:42;;;;;;;25.53;11.20;;;;;;;20.29;73.82;101178.56;4999981;28;20483;-49
2021/07/16 01:59:12;;;;;;;25.00;10.67;;;;;;;20.40;73.92;101172.53;5001892;28;20461;-48
2021/07/16 02:01:40;;;;;;;23.30;10.97;;;;;;;20.33;74.19;101175.13;5000500;28;20491;-48
2021/07/16 02:04:07;;;;;;;27.37;10.77;;;;;;;20.21;74.14;101169.78;5001858;28;20541;-49
2021/07/16 02:06:36;;;;;;;28.57;10.90;;;;;;;20.43;73.98;101168.19;4999823;28;20487;-47
2021/07/16 02:09:05;;;;;;;31.13;11.73;;;;;;;20.44;73.76;101179.53;5001804;28;20466;-48
2021/07/16 02:11:33;;;;;;;26.43;10.30;;;;;;;20.36;73.66;101177.75;5000243;28;20806;-49
2021/07/16 02:14:01;;;;;;;24.40;10.50;;;;;;;20.28;73.67;101176.81;5001629;28;20499;-51
2021/07/16 02:16:30;;;;;;;27.27;9.60;;;;;;;20.22;73.83;101179.38;4999858;28;20574;-46
2021/07/16 02:18:58;;;;;;;31.47;10.57;;;;;;;19.99;74.05;101172.19;5001780;28;20562;-47
2021/07/16 02:21:26;;;;;;;27.93;10.00;;;;;;;20.13;74.08;101180.19;5000133;28;20537;-45
2021/07/16 02:23:53;;;;;;;25.60;10.00;;;;;;;20.21;73.91;101183.72;5001696;28;20960;-47
2021/07/16 02:26:21;;;;;;;27.53;10.13;;;;;;;20.12;73.92;101185.41;5000554;28;20483;-48
2021/07/16 02:28:48;;;;;;;24.57;9.67;;;;;;;19.97;73.97;101176.53;4998660;28;20459;-49
2021/07/16 02:31:16;;;;;;;40.83;10.40;;;;;;;20.05;73.65;101187.09;4996866;28;20786;-51
2021/07/16 02:33:45;;;;;;;26.27;9.00;;;;;;;19.96;73.67;101188.75;5000951;28;20527;-47
2021/07/16 02:36:15;;;;;;;26.57;9.47;;;;;;;19.92;73.81;101188.69;4996803;28;20477;-46
2021/07/16 02:38:43;;;;;;;31.97;10.07;;;;;;;19.93;73.72;101193.03;4998364;28;20470;-46
2021/07/16 02:41:10;;;;;;;26.27;9.60;;;;;;;19.85;73.41;101198.22;4996904;28;20479;-49
2021/07/16 02:43:38;;;;;;;29.40;10.00;;;;;;;19.96;73.27;101194.00;4998198;28;20954;-50
2021/07/16 02:46:06;;;;;;;26.20;9.63;;;;;;;19.90;73.90;101199.13;4996441;28;20488;-47
2021/07/16 02:48:34;;;;;;;26.00;9.73;;;;;;;19.82;73.47;101200.81;4998081;28;20779;-46
2021/07/16 02:51:04;;;;;;;24.93;10.17;;;;;;;19.84;73.66;101204.31;4996732;28;20484;-47
2021/07/16 02:53:32;;;;;;;32.33;10.10;;;;;;;19.99;73.79;101201.00;4998382;28;20772;-48
2021/07/16 02:55:59;;;;;;;20.87;9.50;;;;;;;19.96;73.29;101200.97;4996337;28;20494;-49
2021/07/16 02:58:27;;;;;;;37.87;9.80;;;;;;;20.06;72.75;101205.44;4997997;28;20459;-47
2021/07/16 03:00:55;;;;;;;19.53;9.07;;;;;;;19.97;72.75;101210.59;4996936;28;20799;-49
2021/07/16 03:03:23;;;;;;;21.80;10.27;;;;;;;20.01;72.89;101204.53;4998013;28;20487;-45
2021/07/16 03:05:51;;;;;;;24.43;9.50;;;;;;;19.84;73.33;101209.53;4996334;28;20486;-48
2021/07/16 03:08:19;;;;;;;28.50;10.17;;;;;;;19.85;73.06;101208.69;4997568;28;20489;-49
2021/07/16 03:10:47;;;;;;;24.20;9.40;;;;;;;19.82;73.34;101206.94;4996489;28;20487;-47
2021/07/16 03:13:16;;;;;;;24.10;9.93;;;;;;;19.91;73.15;101207.88;4997576;28;20831;-48
2021/07/16 03:15:44;;;;;;;24.07;9.37;;;;;;;19.87;72.78;101212.19;4998566;28;20500;-47
2021/07/16 03:18:12;;;;;;;23.80;10.57;;;;;;;19.81;73.12;101212.13;4997547;28;20535;-46
2021/07/16 03:20:44;;;;;;;26.83;9.90;;;;;;;19.76;72.81;101217.34;4996288;28;20480;-49
2021/07/16 03:23:13;;;;;;;28.50;10.30;;;;;;;19.89;72.57;101213.09;4997264;28;20500;-47
2021/07/16 03:25:42;;;;;;;31.03;9.30;;;;;;;19.99;72.61;101219.31;4996046;28;20470;-48
2021/07/16 03:28:11;;;;;;;29.17;10.20;;;;;;;20.06;72.58;101221.13;4997398;28;20845;-50
2021/07/16 03:30:40;;;;;;;25.80;10.37;;;;;;;19.96;72.33;101229.78;4996205;28;20946;-53
2021/07/16 03:33:08;;;;;;;22.00;9.40;;;;;;;19.95;72.73;101230.63;4997168;28;20794;-46
2021/07/16 03:35:36;;;;;;;27.50;10.43;;;;;;;19.95;72.60;101233.25;4997166;28;20772;-51
2021/07/16 03:38:04;;;;;;;24.57;9.63;;;;;;;19.69;73.18;101226.84;4995617;28;20479;-47
2021/07/16 03:40:31;;;;;;;33.43;10.47;;;;;;;19.86;73.12;101235.75;4997023;28;21049;-48
2021/07/16 03:43:01;;;;;;;25.87;10.17;;;;;;;19.84;72.97;101238.34;4995460;28;20494;-46
2021/07/16 03:45:34;;;;;;;32.33;10.80;;;;;;;19.89;72.95;101243.66;4997033;28;20465;-49
2021/07/16 03:48:01;;;;;;;28.00;11.60;;;;;;;19.88;73.17;101245.38;4995566;28;20751;-52
2021/07/16 03:50:29;;;;;;;75.73;41.00;;;;;;;19.93;73.36;101241.06;4996889;28;20485;-49
2021/07/16 03:52:57;;;;;;;26.53;10.80;;;;;;;20.00;72.91;101233.31;4995435;28;20487;-49
2021/07/16 03:55:24;;;;;;;39.50;11.57;;;;;;;19.92;73.15;101227.94;4996962;28;20559;-50
2021/07/16 03:57:52;;;;;;;22.87;10.80;;;;;;;19.98;73.12;101225.44;4995623;28;20483;-48
2021/07/16 04:00:26;;;;;;;26.20;10.90;;;;;;;19.95;73.11;101228.00;4996744;28;20491;-48
2021/07/16 04:02:53;;;;;;;26.03;10.43;;;;;;;19.79;72.83;101226.97;4995756;28;20842;-49
2021/07/16 04:05:21;;;;;;;31.17;10.70;;;;;;;19.73;72.82;101227.75;4996663;28;20591;-45
2021/07/16 04:07:50;;;;;;;30.70;10.83;;;;;;;19.65;73.34;101224.19;4995192;28;20758;-47
2021/07/16 04:10:19;;;;;;;28.10;11.53;;;;;;;19.66;73.29;101228.53;4996732;28;20492;-50
2021/07/16 04:12:51;;;;;;;24.10;10.63;;;;;;;19.54;73.68;101224.91;4995193;28;20495;-48
2021/07/16 04:15:18;;;;;;;35.30;11.33;;;;;;;19.59;73.69;101234.56;4996641;28;20465;-47
2021/07/16 04:17:47;;;;;;;22.40;10.53;;;;;;;19.65;73.93;101232.03;4994962;28;20490;-46
2021/07/16 04:20:15;;;;;;;31.30;12.17;;;;;;;19.63;73.80;101233.75;4996394;28;20499;-46
2021/07/16 04:22:44;;;;;;;28.97;11.93;;;;;;;19.67;73.99;101223.34;4997385;28;20800;-51
2021/07/16 04:25:14;;;;;;;29.43;11.17;;;;;;;19.65;73.98;101229.41;4996606;28;20458;-49
2021/07/16 04:27:42;;;;;;;34.03;11.53;;;;;;;19.62;73.73;101232.88;4994674;28;20487;-47
2021/07/16 04:30:11;;;;;;;28.23;12.97;;;;;;;19.64;73.86;101243.38;4996138;28;20967;-51
2021/07/16 04:32:38;;;;;;;38.17;11.60;;;;;;;19.77;73.74;101244.38;4994722;28;20486;-46
2021/07/16 04:35:09;;;;;;;37.67;11.30;;;;;;;19.77;73.60;101255.72;4996538;28;20471;-47
2021/07/16 04:37:36;;;;;;;30.70;11.30;;;;;;;19.91;73.28;101253.28;4996811;28;21372;-48
2021/07/16 04:40:06;;;;;;;33.50;12.00;;;;;;;19.69;73.26;101252.16;4996315;28;20484;-49
2021/07/16 04:42:33;;;;;;;27.87;10.90;;;;;;;19.74;73.29;101255.69;4994393;28;20918;-49
2021/07/16 04:45:01;;;;;;;37.87;11.43;;;;;;;19.74;73.05;101257.44;4995928;28;20483;-47
2021/07/16 04:47:28;;;;;;;29.27;11.13;;;;;;;19.86;72.97;101264.53;4994404;28;20757;-47
2021/07/16 04:49:56;;;;;;;32.03;10.37;;;;;;;19.63;72.59;101262.56;4995536;28;20478;-48
2021/07/16 04:52:25;;;;;;;31.57;10.30;;;;;;;19.59;73.24;101260.75;4994566;28;20504;-49
2021/07/16 04:54:52;;;;;;;32.67;11.50;;;;;;;19.58;73.12;101264.22;4996043;28;20468;-48
2021/07/16 04:57:20;;;;;;;28.77;9.60;;;;;;;19.58;73.40;101261.59;4994165;28;20486;-46
2021/07/16 04:59:49;;;;;;;22.40;10.00;;;;;;;19.74;72.50;101274.00;4995695;28;20532;-51
2021/07/16 05:02:17;;;;;;;33.87;11.10;;;;;;;19.76;72.67;101268.78;4994518;28;21411;-46
2021/07/16 05:04:44;;;;;;;28.13;10.67;;;;;;;19.83;72.78;101268.00;4995969;28;20510;-47
2021/07/16 05:07:14;;;;;;;33.97;10.50;;;;;;;19.79;72.30;101274.09;4993938;28;20488;-47
2021/07/16 05:09:43;;;;;;;37.97;11.10;;;;;;;19.86;72.26;101264.53;4995758;28;20516;-47
2021/07/16 05:12:11;;;;;;;31.53;10.07;;;;;;;19.54;72.81;101269.41;4994659;28;20492;-46
2021/07/16 05:14:38;;;;;;;29.63;10.50;;;;;;;19.69;72.64;101267.84;5010937;28;20468;-49
2021/07/16 05:17:06;;;;;;;34.30;9.87;;;;;;;19.79;72.27;101271.47;5013783;28;20482;-47
2021/07/16 05:19:34;;;;;;;28.00;9.10;;;;;;;19.93;72.22;101267.25;5015410;28;20463;-48
2021/07/16 05:22:01;;;;;;;28.37;9.67;;;;;;;20.07;71.78;101285.78;5013908;28;20483;-48
2021/07/16 05:24:30;;;;;;;26.70;9.87;;;;;;;19.91;72.06;101275.94;5015001;28;20484;-47
2021/07/16 05:26:59;;;;;;;29.57;9.60;;;;;;;19.78;71.88;101277.53;5013488;28;20939;-47
2021/07/16 05:29:27;;;;;;;33.07;9.80;;;;;;;19.81;71.59;101281.09;5015364;28;20467;-49
2021/07/16 05:31:54;;;;;;;35.37;9.40;;;;;;;19.81;71.95;101283.72;5013738;28;20484;-47
2021/07/16 05:34:22;;;;;;;46.93;9.83;;;;;;;19.91;71.71;101278.56;5015064;28;20891;-48
2021/07/16 05:36:50;;;;;;;36.23;9.50;;;;;;;20.01;71.69;101280.47;5013320;28;20487;-48
2021/07/16 05:39:17;;;;;;;35.53;10.23;;;;;;;20.11;71.36;101286.69;5015137;28;20462;-48
2021/07/16 05:41:45;;;;;;;32.70;10.80;;;;;;;20.09;70.82;101281.41;5013716;28;20486;-50
2021/07/16 05:44:14;;;;;;;29.33;10.20;;;;;;;20.02;70.76;101281.31;5015062;28;20486;-46
2021/07/16 05:46:41;;;;;;;30.40;10.17;;;;;;;19.99;70.83;101290.03;5013087;28;20901;-46
2021/07/16 05:49:09;;;;;;;38.47;10.13;;;;;;;20.06;70.57;101289.22;5015101;28;20456;-49
2021/07/16 05:51:36;;;;;;;38.07;10.70;;;;;;;20.19;70.60;101299.84;5013716;28;20769;-47
2021/07/16 05:54:04;;;;;;;34.53;10.43;;;;;;;20.14;70.68;101297.16;5014971;28;20468;-48
2021/07/16 05:56:31;;;;;;;31.40;9.27;;;;;;;20.27;70.58;101303.44;5013080;28;20487;-52
2021/07/16 05:58:59;;;;;;;30.60;10.10;;;;;;;20.19;70.82;101300.72;5015099;28;20458;-48
2021/07/16 06:01:28;;;;;;;34.23;9.40;;;;;;;20.34;70.75;101307.88;5013438;28;20809;-46
2021/07/16 06:03:56;;;;;;;33.43;10.20;;;;;;;20.18;70.66;101304.22;5018676;28;20462;-48
2021/07/16 06:06:23;;;;;;;33.03;9.90;;;;;;;20.25;70.58;101310.38;5016612;28;20513;-50
2021/07/16 06:08:51;;;;;;;30.17;9.80;;;;;;;20.29;70.69;101309.56;5018758;28;20790;-47
2021/07/16 06:11:18;;;;;;;27.13;9.43;;;;;;;20.34;70.48;101312.22;5017002;28;20482;-48
2021/07/16 06:13:46;;;;;;;32.03;9.90;;;;;;;20.18;70.88;101313.81;5018629;28;20468;-48
2021/07/16 06:16:13;;;;;;;33.43;10.97;;;;;;;20.17;70.88;101312.94;5016756;28;20549;-47
2021/07/16 06:18:42;;;;;;;32.93;10.80;;;;;;;20.13;70.88;101305.91;5018267;28;20776;-47
2021/07/16 06:21:10;;;;;;;49.87;18.90;;;;;;;20.50;70.85;101313.25;5017001;28;20778;-50
2021/07/16 06:23:38;;;;;;;41.23;10.47;;;;;;;20.72;70.12;101322.16;5018309;28;20474;-47
2021/07/16 06:26:05;;;;;;;24.97;9.60;;;;;;;20.75;69.96;101316.97;5016487;28;20497;-50
2021/07/16 06:28:33;;;;;;;32.80;9.20;;;;;;;20.83;69.86;101313.53;5017951;28;21292;-48
2021/07/16 06:31:00;;;;;;;27.33;10.17;;;;;;;20.80;69.48;101314.38;5013236;28;20477;-50
2021/07/16 06:33:29;;;;;;;29.47;9.77;;;;;;;20.73;69.35;101318.72;5017993;28;20468;-51
2021/07/16 06:35:57;;;;;;;31.10;10.10;;;;;;;20.93;69.44;101325.00;5016373;28;20463;-46
2021/07/16 06:38:25;;;;;;;32.17;10.37;;;;;;;20.74;69.44;101330.06;5017872;28;20459;-48
2021/07/16 06:40:52;;;;;;;28.77;11.10;;;;;;;20.70;69.48;101323.03;5016783;28;20483;-47
2021/07/16 06:43:20;;;;;;;46.97;11.00;;;;;;;20.79;69.34;101325.75;5017714;28;20469;-47
2021/07/16 06:45:48;;;;;;;26.60;10.07;;;;;;;20.64;69.56;101324.75;5013010;28;20489;-49
2021/07/16 06:48:15;;;;;;;28.23;10.60;;;;;;;20.69;69.74;101327.41;5017777;28;20494;-46
2021/07/16 06:50:43;;;;;;;32.77;10.80;;;;;;;20.67;70.18;101338.75;5016384;28;20486;-47
2021/07/16 06:53:12;;;;;;;29.37;10.63;;;;;;;20.94;69.83;101332.00;5017644;28;20499;-48
2021/07/16 06:55:39;;;;;;;36.70;11.70;;;;;;;20.84;69.34;101336.25;5016348;28;20460;-49
2021/07/16 06:58:07;;;;;;;29.70;10.97;;;;;;;21.06;69.31;101339.97;5017342;28;20492;-49
2021/07/16 07:00:34;;;;;;;36.40;11.93;;;;;;;21.13;68.81;101348.75;5017283;28;20492;-49
2021/07/16 07:03:03;;;;;;;35.17;10.90;;;;;;;21.20;69.02;101345.31;5016161;28;20589;-47
2021/07/16 07:05:51;;;;;;;29.80;9.40;;;;;;;21.34;68.70;101347.13;5012655;28;20475;-49
2021/07/16 07:08:20;;;;;;;31.40;10.20;;;;;;;21.00;69.11;101351.28;5017378;28;20803;-46
2021/07/16 07:10:47;;;;;;;35.43;10.50;;;;;;;21.33;69.01;101354.13;5016020;28;20491;-49
2021/07/16 07:13:15;;;;;;;27.00;10.30;;;;;;;21.37;68.42;101353.28;5016561;28;20499;-48
2021/07/16 07:15:43;;;;;;;25.50;11.23;;;;;;;21.07;68.83;101353.97;5015780;28;20523;-50
2021/07/16 07:18:10;;;;;;;32.43;9.90;;;;;;;21.14;68.84;101358.38;5017146;28;20508;-47
2021/07/16 07:20:39;;;;;;;34.30;10.70;;;;;;;21.26;68.87;101354.94;5017223;28;20480;-46
2021/07/16 07:23:06;;;;;;;38.50;15.53;;;;;;;21.43;68.72;101353.31;5016663;28;20462;-48
2021/07/16 07:25:36;;;;;;;33.30;13.47;;;;;;;21.42;68.25;101359.44;5016698;28;20492;-46
2021/07/16 07:28:04;;;;;;;37.13;16.60;;;;;;;21.47;68.43;101369.97;5015997;28;20489;-46
2021/07/16 07:30:31;;;;;;;47.17;17.10;;;;;;;21.52;68.04;101373.50;5017094;28;20808;-47
2021/07/16 07:32:59;;;;;;;42.53;16.00;;;;;;;21.40;68.06;101376.03;5015464;28;20481;-48
2021/07/16 07:35:28;;;;;;;31.60;12.67;;;;;;;21.29;68.27;101383.84;5016718;28;20452;-49
2021/07/16 07:37:56;;;;;;;38.40;12.33;;;;;;;21.54;68.59;101386.63;5015439;28;20483;-47
2021/07/16 07:40:24;;;;;;;32.90;11.03;;;;;;;21.62;68.40;101384.94;5016985;28;20790;-50
2021/07/16 07:42:53;;;;;;;35.00;11.97;;;;;;;21.59;68.39;101382.31;5015218;28;20495;-47
2021/07/16 07:45:20;;;;;;;35.03;11.40;;;;;;;21.67;68.36;101377.97;5016593;28;20490;-48
2021/07/16 07:47:49;;;;;;;33.47;11.53;;;;;;;21.93;67.94;101384.22;5015243;28;20485;-50
2021/07/16 07:50:17;;;;;;;39.60;11.27;;;;;;;21.89;67.32;101377.22;5016632;28;20491;-50
2021/07/16 07:52:46;;;;;;;41.07;18.30;;;;;;;21.94;67.23;101381.63;5014865;28;20491;-47
2021/07/16 07:55:15;;;;;;;29.90;11.40;;;;;;;22.05;67.13;101379.03;5016729;28;20499;-46
2021/07/16 07:57:42;;;;;;;31.73;11.57;;;;;;;21.98;66.54;101383.41;5014724;28;20485;-47
2021/07/16 08:00:14;;;;;;;33.37;12.40;;;;;;;22.34;66.41;101374.72;5016469;28;20493;-47
2021/07/16 08:02:42;;;;;;;31.10;10.53;;;;;;;22.48;66.11;101372.16;5014884;28;20490;-46
2021/07/16 08:05:11;;;;;;;27.50;10.70;;;;;;;22.48;66.31;101372.16;5016203;28;20490;-48
2021/07/16 08:07:39;;;;;;;30.60;11.23;;;;;;;22.71;65.20;101364.31;5014566;28;20520;-47
2021/07/16 08:10:09;;;;;;;34.20;11.20;;;;;;;22.87;64.70;101377.50;5016452;28;20477;-48
2021/07/16 08:12:37;;;;;;;32.80;11.53;;;;;;;22.83;64.55;101373.97;5014701;28;20485;-50
2021/07/16 08:15:07;;;;;;;27.67;11.40;;;;;;;22.62;65.08;101390.63;5016279;28;20461;-48
2021/07/16 08:17:36;;;;;;;37.70;16.00;;;;;;;22.59;65.80;101383.59;5014444;28;20800;-49
2021/07/16 08:20:05;;;;;;;33.73;11.50;;;;;;;22.84;64.95;101403.78;5016378;28;20481;-46
2021/07/16 08:22:32;;;;;;;41.90;10.37;;;;;;;22.98;63.81;101409.06;5011524;28;20477;-49
2021/07/16 08:25:00;;;;;;;26.13;9.90;;;;;;;22.82;63.87;101397.66;5015238;28;20524;-51
2021/07/16 08:27:28;;;;;;;27.83;9.20;;;;;;;22.98;63.92;101415.19;5014302;28;20572;-46
2021/07/16 08:29:56;;;;;;;30.63;9.13;;;;;;;22.93;64.28;101411.69;5015815;28;20481;-47
2021/07/16 08:32:23;;;;;;;24.13;8.50;;;;;;;22.78;64.18;101407.28;5014365;28;20515;-47
2021/07/16 08:34:52;;;;;;;23.43;8.87;;;;;;;23.06;64.44;101407.28;5015973;28;20461;-47
2021/07/16 08:37:20;;;;;;;23.97;8.00;;;;;;;22.96;63.63;101411.66;5014178;28;20965;-51
2021/07/16 08:39:47;;;;;;;34.23;8.83;;;;;;;23.15;63.25;101401.16;5015961;28;20799;-50
2021/07/16 08:42:15;;;;;;;25.77;7.43;;;;;;;23.28;63.72;101389.72;5011015;28;20791;-48
2021/07/16 08:44:44;;;;;;;31.87;9.47;;;;;;;23.48;62.99;101394.09;5015451;28;20492;-50
2021/07/16 08:47:11;;;;;;;32.80;12.20;;;;;;;23.23;63.23;101395.88;5013851;28;20496;-47
2021/07/16 08:49:40;;;;;;;27.57;9.50;;;;;;;23.37;63.18;101401.19;5015838;28;20462;-50
2021/07/16 08:52:09;;;;;;;34.87;8.87;;;;;;;23.62;62.67;101402.00;5014267;28;20876;-48
2021/07/16 08:54:42;;;;;;;26.67;8.13;;;;;;;23.86;62.58;101402.81;5015538;28;20480;-49
2021/07/16 08:57:11;;;;;;;25.30;8.13;;;;;;;23.71;61.72;101399.34;5010588;28;20923;-48
2021/07/16 08:59:39;;;;;;;25.57;7.40;;;;;;;23.72;62.02;101390.56;5015653;28;20756;-50
2021/07/16 09:02:06;;;;;;;23.00;8.60;;;;;;;23.86;61.69;101387.88;5014196;28;20557;-52
2021/07/16 09:04:38;;;;;;;26.37;7.90;;;;;;;23.96;61.90;101380.81;5015512;28;20836;-51
2021/07/16 09:07:06;;;;;;;28.67;8.83;;;;;;;23.96;61.56;101390.47;5013657;28;20863;-47
2021/07/16 09:09:37;;;;;;;25.90;8.20;;;;;;;24.00;60.73;101392.22;5015306;28;20457;-47
2021/07/16 09:12:09;;;;;;;46.00;20.13;;;;;;;24.19;61.23;101397.44;5014010;28;20543;-49
2021/07/16 09:14:37;;;;;;;45.17;22.87;;;;;;;24.29;61.91;101401.75;5015621;28;20750;-51
2021/07/16 09:17:07;;;;;;;21.83;9.30;;;;;;;24.39;61.16;101400.84;5013593;28;20477;-51
2021/07/16 09:19:38;;;;;;;18.60;7.70;;;;;;;24.05;61.69;101406.22;5015377;28;20457;-50
2021/07/16 09:22:09;;;;;;;23.57;8.23;;;;;;;24.16;60.88;101402.72;5013794;28;20923;-47
2021/07/16 09:24:43;;;;;;;16.67;7.63;;;;;;;24.31;60.52;101392.09;5015451;28;20479;-48
2021/07/16 09:27:34;;;;;;;13.53;6.57;;;;;;;24.63;59.92;101393.66;5013314;28;20576;-47
2021/07/16 09:30:18;;;;;;;22.40;7.20;;;;;;;24.70;60.07;101401.53;5015033;28;20477;-52
2021/07/16 09:32:47;;;;;;;19.37;6.60;;;;;;;24.80;59.63;101400.56;5013690;28;20508;-47
2021/07/16 09:35:19;;;;;;;23.70;7.77;;;;;;;24.86;59.20;101403.16;5015256;28;20457;-48
2021/07/16 09:37:48;;;;;;;23.07;7.17;;;;;;;24.77;58.55;101397.94;5017777;28;20958;-47
2021/07/16 09:40:22;;;;;;;20.30;7.00;;;;;;;24.87;58.50;101397.00;5019162;28;20560;-49
2021/07/16 09:42:58;;;;;;;20.20;6.87;;;;;;;24.86;58.88;101400.53;5017601;28;20477;-49
2021/07/16 09:45:25;;;;;;;23.00;7.00;;;;;;;24.83;59.09;101403.22;5018802;28;20453;-50
2021/07/16 09:47:53;;;;;;;28.80;7.60;;;;;;;25.03;58.71;101400.38;5017500;28;20491;-48
2021/07/16 09:50:23;;;;;;;20.93;7.37;;;;;;;25.17;59.73;101408.19;5018994;28;20477;-50
2021/07/16 09:53:12;;;;;;;19.10;7.10;;;;;;;25.32;57.39;101401.00;5017573;28;20783;-52
2021/07/16 09:55:45;;;;;;;17.57;7.10;;;;;;;25.31;58.38;101396.63;5017167;28;20887;-46
2021/07/16 09:58:26;;;;;;;21.27;6.57;;;;;;;25.57;57.34;101399.03;5018534;28;20957;-49
2021/07/16 10:00:55;;;;;;;21.27;6.83;;;;;;;25.45;57.42;101407.94;5017242;28;20495;-49
2021/07/16 10:03:23;;;;;;;18.77;7.13;;;;;;;25.58;58.29;101405.22;5018488;28;20523;-49
2021/07/16 10:05:51;;;;;;;21.57;7.50;;;;;;;25.51;57.93;101400.81;5017176;28;20503;-50
2021/07/16 10:08:20;;;;;;;20.57;7.80;;;;;;;25.66;57.67;101403.34;5018657;28;20456;-47
2021/07/16 10:10:51;;;;;;;19.33;6.30;;;;;;;25.91;57.79;101403.06;5017453;28;20591;-48
2021/07/16 10:13:18;;;;;;;21.57;7.00;;;;;;;26.10;56.86;101397.53;5018182;28;20475;-47
2021/07/16 10:15:47;;;;;;;20.80;6.60;;;;;;;26.01;55.98;101396.75;5017064;28;20563;-46
2021/07/16 10:18:14;;;;;;;15.03;6.40;;;;;;;25.95;56.89;101393.31;5018084;28;20485;-52
2021/07/16 10:20:42;;;;;;;19.20;7.07;;;;;;;26.08;57.22;101388.72;5017464;28;20489;-47
2021/07/16 10:23:10;;;;;;;17.67;7.10;;;;;;;26.37;56.27;101382.22;5018033;28;20481;-47
2021/07/16 10:25:38;;;;;;;15.27;6.27;;;;;;;26.08;55.94;101391.38;5018095;28;20460;-48
2021/07/16 10:28:08;;;;;;;24.80;7.40;;;;;;;26.53;56.35;101396.97;5017639;28;20487;-50
2021/07/16 10:30:38;;;;;;;20.80;6.80;;;;;;;26.37;55.63;101403.38;5018004;28;20766;-48
2021/07/16 10:33:05;;;;;;;22.53;7.20;;;;;;;26.60;55.88;101402.16;5014192;28;20476;-47
2021/07/16 10:35:37;;;;;;;15.00;6.77;;;;;;;26.56;54.99;101402.19;5017974;28;20467;-49
2021/07/16 10:38:06;;;;;;;19.13;6.50;;;;;;;26.39;55.44;101405.09;5017528;28;20852;-49
2021/07/16 10:40:35;;;;;;;22.47;7.07;;;;;;;26.75;54.66;101412.50;5018066;28;20780;-49
2021/07/16 10:43:03;;;;;;;18.37;7.33;;;;;;;26.73;54.56;101409.00;5016280;28;20486;-48
2021/07/16 10:45:34;;;;;;;25.83;8.07;;;;;;;26.62;54.54;101410.94;5017504;28;20461;-47
2021/07/16 10:48:16;;;;;;;22.10;7.40;;;;;;;26.71;55.34;101413.44;5015503;28;20486;-48
2021/07/16 10:50:45;;;;;;;22.33;7.60;;;;;;;26.83;55.23;101410.59;5015853;28;20572;-50
2021/07/16 10:53:18;;;;;;;21.23;7.20;;;;;;;27.02;55.24;101420.06;5015086;28;20488;-51
2021/07/16 10:56:03;;;;;;;24.23;8.47;;;;;;;26.94;57.11;101422.81;5016097;28;20464;-49
2021/07/16 10:58:43;;;;;;;20.83;7.60;;;;;;;26.86;56.01;101424.69;5017748;28;20887;-50
2021/07/16 11:01:13;;;;;;;19.60;7.93;;;;;;;26.86;54.67;101422.91;5014991;28;20476;-48
2021/07/16 11:03:42;;;;;;;19.40;7.80;;;;;;;27.13;55.11;101420.75;5015348;28;20472;-50
2021/07/16 11:06:11;;;;;;;20.83;7.57;;;;;;;27.06;54.37;101427.91;5015713;28;20484;-49
2021/07/16 11:08:57;;;;;;;18.20;6.70;;;;;;;27.12;54.24;101429.56;5017704;28;20508;-48
2021/07/16 11:11:36;;;;;;;19.83;7.00;;;;;;;27.31;53.68;101429.25;5015900;28;20576;-51
2021/07/16 11:14:04;;;;;;;17.87;6.50;;;;;;;27.24;54.26;101425.84;5017494;28;20461;-46
2021/07/16 11:16:41;;;;;;;23.60;7.03;;;;;;;27.14;54.58;101426.91;5015712;28;20527;-48
2021/07/16 11:19:24;;;;;;;21.00;6.93;;;;;;;27.17;53.32;101425.06;5017421;28;20468;-47